sensor_id;sensor_type;location;lat;lon;timestamp;temperature;humidity
4811;DHT22;2419;51.276;6.472;2023-12-29T00:00:05;10.90;99.90
4811;DHT22;2419;51.276;6.472;2023-12-29T00:02:34;11.00;99.90
4811;DHT22;2419;51.276;6.472;2023-12-29T00:05:04;11.00;99.90
4811;DHT22;2419;51.276;6.472;2023-12-29T00:07:32;11.00;99.90
4811;DHT22;2419;51.276;6.472;2023-12-29T00:10:00;10.90;99.90
4811;DHT22;2419;51.276;6.472;2023-12-29T00:12:29;10.90;99.90
4811;DHT22;2419;51.276;6.472;2023-12-29T00:14:57;10.80;99.90
4811;DHT22;2419;51.276;6.472;2023-12-29T00:17:25;10.90;99.90
4811;DHT22;2419;51.276;6.472;2023-12-29T00:19:53;10.90;99.90
4811;DHT22;2419;51.276;6.472;2023-12-29T00:22:22;11.00;99.90
4811;DHT22;2419;51.276;6.472;2023-12-29T00:24:52;10.90;99.90
4811;DHT22;2419;51.276;6.472;2023-12-29T00:27:20;11.00;99.90
4811;DHT22;2419;51.276;6.472;2023-12-29T00:29:48;11.00;99.90
4811;DHT22;2419;51.276;6.472;2023-12-29T00:32:16;11.00;99.90
4811;DHT22;2419;51.276;6.472;2023-12-29T00:34:44;11.10;99.90
4811;DHT22;2419;51.276;6.472;2023-12-29T00:37:12;11.00;99.90
4811;DHT22;2419;51.276;6.472;2023-12-29T00:39:42;11.00;99.90
4811;DHT22;2419;51.276;6.472;2023-12-29T00:42:10;11.10;99.90
4811;DHT22;2419;51.276;6.472;2023-12-29T00:44:39;11.10;99.90
4811;DHT22;2419;51.276;6.472;2023-12-29T00:47:07;11.00;99.90
4811;DHT22;2419;51.276;6.472;2023-12-29T00:49:38;11.00;99.90
4811;DHT22;2419;51.276;6.472;2023-12-29T00:52:06;11.10;99.90
4811;DHT22;2419;51.276;6.472;2023-12-29T00:54:35;11.00;99.90
4811;DHT22;2419;51.276;6.472;2023-12-29T00:57:04;11.00;99.90
4811;DHT22;2419;51.276;6.472;2023-12-29T00:59:32;10.80;99.90
4811;DHT22;2419;51.276;6.472;2023-12-29T01:02:04;10.90;99.90
4811;DHT22;2419;51.276;6.472;2023-12-29T01:04:33;10.80;99.90
4811;DHT22;2419;51.276;6.472;2023-12-29T01:07:01;10.70;99.90
4811;DHT22;2419;51.276;6.472;2023-12-29T01:09:29;10.60;99.90
4811;DHT22;2419;51.276;6.472;2023-12-29T01:11:58;10.70;99.90
4811;DHT22;2419;51.276;6.472;2023-12-29T01:14:27;10.70;99.90
4811;DHT22;2419;51.276;6.472;2023-12-29T01:16:55;10.70;99.90
4811;DHT22;2419;51.276;6.472;2023-12-29T01:19:25;10.70;99.90
4811;DHT22;2419;51.276;6.472;2023-12-29T01:21:53;10.60;99.90
4811;DHT22;2419;51.276;6.472;2023-12-29T01:24:21;10.60;99.90
4811;DHT22;2419;51.276;6.472;2023-12-29T01:26:58;10.70;99.90
4811;DHT22;2419;51.276;6.472;2023-12-29T01:29:28;10.70;99.90
4811;DHT22;2419;51.276;6.472;2023-12-29T01:31:56;10.70;99.90
4811;DHT22;2419;51.276;6.472;2023-12-29T01:34:24;10.60;99.90
4811;DHT22;2419;51.276;6.472;2023-12-29T01:36:59;10.70;99.90
4811;DHT22;2419;51.276;6.472;2023-12-29T01:39:27;10.70;99.90
4811;DHT22;2419;51.276;6.472;2023-12-29T01:41:56;10.70;99.90
4811;DHT22;2419;51.276;6.472;2023-12-29T01:44:24;10.70;99.90
4811;DHT22;2419;51.276;6.472;2023-12-29T01:46:56;10.70;99.90
4811;DHT22;2419;51.276;6.472;2023-12-29T01:49:27;10.80;99.90
4811;DHT22;2419;51.276;6.472;2023-12-29T01:51:57;10.80;99.90
4811;DHT22;2419;51.276;6.472;2023-12-29T01:54:29;10.70;99.90
4811;DHT22;2419;51.276;6.472;2023-12-29T01:57:00;10.70;99.90
4811;DHT22;2419;51.276;6.472;2023-12-29T01:59:30;10.70;99.90
4811;DHT22;2419;51.276;6.472;2023-12-29T02:02:01;10.70;99.90
4811;DHT22;2419;51.276;6.472;2023-12-29T02:04:31;10.50;99.90
4811;DHT22;2419;51.276;6.472;2023-12-29T02:06:59;10.50;99.90
4811;DHT22;2419;51.276;6.472;2023-12-29T02:09:27;10.30;99.90
4811;DHT22;2419;51.276;6.472;2023-12-29T02:11:56;10.30;99.90
4811;DHT22;2419;51.276;6.472;2023-12-29T02:14:24;10.20;99.90
4811;DHT22;2419;51.276;6.472;2023-12-29T02:17:01;10.30;99.90
4811;DHT22;2419;51.276;6.472;2023-12-29T02:19:37;10.10;99.90
4811;DHT22;2419;51.276;6.472;2023-12-29T02:22:07;10.10;99.90
4811;DHT22;2419;51.276;6.472;2023-12-29T02:24:36;10.20;99.90
4811;DHT22;2419;51.276;6.472;2023-12-29T02:27:18;10.20;99.90
4811;DHT22;2419;51.276;6.472;2023-12-29T02:29:56;10.20;99.90
4811;DHT22;2419;51.276;6.472;2023-12-29T02:32:30;10.20;99.90
4811;DHT22;2419;51.276;6.472;2023-12-29T02:35:00;10.20;99.90
4811;DHT22;2419;51.276;6.472;2023-12-29T02:37:29;10.30;99.90
4811;DHT22;2419;51.276;6.472;2023-12-29T02:39:59;10.20;99.90
4811;DHT22;2419;51.276;6.472;2023-12-29T02:42:29;10.20;99.90
4811;DHT22;2419;51.276;6.472;2023-12-29T02:44:57;10.20;99.90
4811;DHT22;2419;51.276;6.472;2023-12-29T02:47:25;10.10;99.90
4811;DHT22;2419;51.276;6.472;2023-12-29T02:49:53;10.10;99.90
4811;DHT22;2419;51.276;6.472;2023-12-29T02:52:21;10.20;99.90
4811;DHT22;2419;51.276;6.472;2023-12-29T02:54:49;10.20;99.90
4811;DHT22;2419;51.276;6.472;2023-12-29T02:57:18;10.20;99.90
4811;DHT22;2419;51.276;6.472;2023-12-29T02:59:47;10.20;99.90
4811;DHT22;2419;51.276;6.472;2023-12-29T03:02:15;10.20;99.90
4811;DHT22;2419;51.276;6.472;2023-12-29T03:04:43;10.20;99.90
4811;DHT22;2419;51.276;6.472;2023-12-29T03:07:11;10.20;99.90
4811;DHT22;2419;51.276;6.472;2023-12-29T03:09:39;10.20;99.90
4811;DHT22;2419;51.276;6.472;2023-12-29T03:12:08;10.20;99.90
4811;DHT22;2419;51.276;6.472;2023-12-29T03:14:36;10.20;99.90
4811;DHT22;2419;51.276;6.472;2023-12-29T03:17:06;10.30;99.90
4811;DHT22;2419;51.276;6.472;2023-12-29T03:19:34;10.40;99.90
4811;DHT22;2419;51.276;6.472;2023-12-29T03:22:02;10.40;99.90
4811;DHT22;2419;51.276;6.472;2023-12-29T03:24:30;10.40;99.90
4811;DHT22;2419;51.276;6.472;2023-12-29T03:26:58;10.40;99.90
4811;DHT22;2419;51.276;6.472;2023-12-29T03:29:26;10.50;99.90
4811;DHT22;2419;51.276;6.472;2023-12-29T03:31:54;10.50;99.90
4811;DHT22;2419;51.276;6.472;2023-12-29T03:34:24;10.50;99.90
4811;DHT22;2419;51.276;6.472;2023-12-29T03:36:52;10.60;99.90
4811;DHT22;2419;51.276;6.472;2023-12-29T03:39:20;10.60;99.90
4811;DHT22;2419;51.276;6.472;2023-12-29T03:41:48;10.60;99.90
4811;DHT22;2419;51.276;6.472;2023-12-29T03:44:16;10.60;99.90
4811;DHT22;2419;51.276;6.472;2023-12-29T03:46:44;10.70;99.90
4811;DHT22;2419;51.276;6.472;2023-12-29T03:49:13;10.70;99.90
4811;DHT22;2419;51.276;6.472;2023-12-29T03:51:43;10.70;99.90
4811;DHT22;2419;51.276;6.472;2023-12-29T03:54:11;10.70;99.90
4811;DHT22;2419;51.276;6.472;2023-12-29T03:56:39;10.70;99.90
4811;DHT22;2419;51.276;6.472;2023-12-29T03:59:07;10.80;99.90
4811;DHT22;2419;51.276;6.472;2023-12-29T04:01:36;10.80;99.90
4811;DHT22;2419;51.276;6.472;2023-12-29T04:04:04;10.70;99.90
4811;DHT22;2419;51.276;6.472;2023-12-29T04:06:34;10.80;99.90
4811;DHT22;2419;51.276;6.472;2023-12-29T04:09:04;10.70;99.90
4811;DHT22;2419;51.276;6.472;2023-12-29T04:11:32;10.70;99.90
4811;DHT22;2419;51.276;6.472;2023-12-29T04:13:59;10.60;99.90
4811;DHT22;2419;51.276;6.472;2023-12-29T04:16:27;10.40;99.90
4811;DHT22;2419;51.276;6.472;2023-12-29T04:18:55;10.40;99.90
4811;DHT22;2419;51.276;6.472;2023-12-29T04:21:24;10.30;99.90
4811;DHT22;2419;51.276;6.472;2023-12-29T04:23:52;10.30;99.90
4811;DHT22;2419;51.276;6.472;2023-12-29T04:26:21;10.40;99.90
4811;DHT22;2419;51.276;6.472;2023-12-29T04:28:49;10.30;99.90
4811;DHT22;2419;51.276;6.472;2023-12-29T04:31:17;10.30;99.90
4811;DHT22;2419;51.276;6.472;2023-12-29T04:33:45;10.40;99.90
4811;DHT22;2419;51.276;6.472;2023-12-29T04:36:13;10.30;99.90
4811;DHT22;2419;51.276;6.472;2023-12-29T04:38:42;10.40;99.90
4811;DHT22;2419;51.276;6.472;2023-12-29T04:41:12;10.40;99.90
4811;DHT22;2419;51.276;6.472;2023-12-29T04:43:41;10.50;99.90
4811;DHT22;2419;51.276;6.472;2023-12-29T04:46:09;10.50;99.90
4811;DHT22;2419;51.276;6.472;2023-12-29T04:48:37;10.50;99.90
4811;DHT22;2419;51.276;6.472;2023-12-29T04:51:07;10.50;99.90
4811;DHT22;2419;51.276;6.472;2023-12-29T04:53:35;10.60;99.90
4811;DHT22;2419;51.276;6.472;2023-12-29T04:56:03;10.60;99.90
4811;DHT22;2419;51.276;6.472;2023-12-29T04:58:31;10.60;99.90
4811;DHT22;2419;51.276;6.472;2023-12-29T05:01:01;10.60;99.90
4811;DHT22;2419;51.276;6.472;2023-12-29T05:03:29;10.60;99.90
4811;DHT22;2419;51.276;6.472;2023-12-29T05:05:57;10.50;99.90
4811;DHT22;2419;51.276;6.472;2023-12-29T05:08:25;10.60;99.90
4811;DHT22;2419;51.276;6.472;2023-12-29T05:10:53;10.50;99.90
4811;DHT22;2419;51.276;6.472;2023-12-29T05:13:22;10.50;99.90
4811;DHT22;2419;51.276;6.472;2023-12-29T05:15:50;10.50;99.90
4811;DHT22;2419;51.276;6.472;2023-12-29T05:18:19;10.60;99.90
4811;DHT22;2419;51.276;6.472;2023-12-29T05:20:47;10.60;99.90
4811;DHT22;2419;51.276;6.472;2023-12-29T05:23:16;10.40;99.90
4811;DHT22;2419;51.276;6.472;2023-12-29T05:25:44;10.50;99.90
4811;DHT22;2419;51.276;6.472;2023-12-29T05:28:12;10.50;99.90
4811;DHT22;2419;51.276;6.472;2023-12-29T05:30:40;10.40;99.90
4811;DHT22;2419;51.276;6.472;2023-12-29T05:33:08;10.50;99.90
4811;DHT22;2419;51.276;6.472;2023-12-29T05:35:37;10.50;99.90
4811;DHT22;2419;51.276;6.472;2023-12-29T05:38:05;10.50;99.90
4811;DHT22;2419;51.276;6.472;2023-12-29T05:40:33;10.40;99.90
4811;DHT22;2419;51.276;6.472;2023-12-29T05:43:02;10.40;99.90
4811;DHT22;2419;51.276;6.472;2023-12-29T05:45:30;10.40;99.90
4811;DHT22;2419;51.276;6.472;2023-12-29T05:47:58;10.40;99.90
4811;DHT22;2419;51.276;6.472;2023-12-29T05:50:27;10.40;99.90
4811;DHT22;2419;51.276;6.472;2023-12-29T05:52:56;10.40;99.90
4811;DHT22;2419;51.276;6.472;2023-12-29T05:55:24;10.40;99.90
4811;DHT22;2419;51.276;6.472;2023-12-29T05:57:53;10.30;99.90
4811;DHT22;2419;51.276;6.472;2023-12-29T06:00:22;10.40;99.90
4811;DHT22;2419;51.276;6.472;2023-12-29T06:02:50;10.30;99.90
4811;DHT22;2419;51.276;6.472;2023-12-29T06:05:19;10.30;99.90
4811;DHT22;2419;51.276;6.472;2023-12-29T06:07:47;10.30;99.90
4811;DHT22;2419;51.276;6.472;2023-12-29T06:10:16;10.20;99.90
4811;DHT22;2419;51.276;6.472;2023-12-29T06:12:45;10.30;99.90
4811;DHT22;2419;51.276;6.472;2023-12-29T06:15:13;10.40;99.90
4811;DHT22;2419;51.276;6.472;2023-12-29T06:17:43;10.40;99.90
4811;DHT22;2419;51.276;6.472;2023-12-29T06:20:11;10.40;99.90
4811;DHT22;2419;51.276;6.472;2023-12-29T06:22:40;10.20;99.90
4811;DHT22;2419;51.276;6.472;2023-12-29T06:25:09;10.30;99.90
4811;DHT22;2419;51.276;6.472;2023-12-29T06:27:39;10.40;99.90
4811;DHT22;2419;51.276;6.472;2023-12-29T06:30:08;10.40;99.90
4811;DHT22;2419;51.276;6.472;2023-12-29T06:32:38;10.50;99.90
4811;DHT22;2419;51.276;6.472;2023-12-29T06:35:07;10.40;99.90
4811;DHT22;2419;51.276;6.472;2023-12-29T06:37:37;10.50;99.90
4811;DHT22;2419;51.276;6.472;2023-12-29T06:40:07;10.40;99.90
4811;DHT22;2419;51.276;6.472;2023-12-29T06:42:35;10.40;99.90
4811;DHT22;2419;51.276;6.472;2023-12-29T06:45:06;10.40;99.90
4811;DHT22;2419;51.276;6.472;2023-12-29T06:47:36;10.40;99.90
4811;DHT22;2419;51.276;6.472;2023-12-29T06:50:05;10.50;99.90
4811;DHT22;2419;51.276;6.472;2023-12-29T06:52:34;10.50;99.90
4811;DHT22;2419;51.276;6.472;2023-12-29T06:55:02;10.50;99.90
4811;DHT22;2419;51.276;6.472;2023-12-29T06:57:30;10.50;99.90
4811;DHT22;2419;51.276;6.472;2023-12-29T06:59:58;10.40;99.90
4811;DHT22;2419;51.276;6.472;2023-12-29T07:02:28;10.30;99.90
4811;DHT22;2419;51.276;6.472;2023-12-29T07:04:56;10.20;99.90
4811;DHT22;2419;51.276;6.472;2023-12-29T07:07:25;10.10;99.90
4811;DHT22;2419;51.276;6.472;2023-12-29T07:09:53;10.00;99.90
4811;DHT22;2419;51.276;6.472;2023-12-29T07:12:21;10.00;99.90
4811;DHT22;2419;51.276;6.472;2023-12-29T07:14:49;9.90;99.90
4811;DHT22;2419;51.276;6.472;2023-12-29T07:17:20;9.90;99.90
4811;DHT22;2419;51.276;6.472;2023-12-29T07:19:49;9.90;99.90
4811;DHT22;2419;51.276;6.472;2023-12-29T07:22:18;9.80;99.90
4811;DHT22;2419;51.276;6.472;2023-12-29T07:24:46;9.80;99.90
4811;DHT22;2419;51.276;6.472;2023-12-29T07:27:14;9.80;99.90
4811;DHT22;2419;51.276;6.472;2023-12-29T07:29:42;9.90;99.90
4811;DHT22;2419;51.276;6.472;2023-12-29T07:32:10;9.90;99.90
4811;DHT22;2419;51.276;6.472;2023-12-29T07:34:38;9.80;99.90
4811;DHT22;2419;51.276;6.472;2023-12-29T07:37:08;9.80;99.90
4811;DHT22;2419;51.276;6.472;2023-12-29T07:39:36;9.80;99.90
4811;DHT22;2419;51.276;6.472;2023-12-29T07:42:05;9.80;99.90
4811;DHT22;2419;51.276;6.472;2023-12-29T07:44:33;9.80;99.90
4811;DHT22;2419;51.276;6.472;2023-12-29T07:47:01;9.80;99.90
4811;DHT22;2419;51.276;6.472;2023-12-29T07:49:29;9.80;99.90
4811;DHT22;2419;51.276;6.472;2023-12-29T07:51:58;9.80;99.90
4811;DHT22;2419;51.276;6.472;2023-12-29T07:54:28;9.80;99.90
4811;DHT22;2419;51.276;6.472;2023-12-29T07:56:56;9.80;99.90
4811;DHT22;2419;51.276;6.472;2023-12-29T07:59:24;9.80;99.90
4811;DHT22;2419;51.276;6.472;2023-12-29T08:01:52;9.80;99.90
4811;DHT22;2419;51.276;6.472;2023-12-29T08:04:20;9.70;99.90
4811;DHT22;2419;51.276;6.472;2023-12-29T08:06:48;9.70;99.90
4811;DHT22;2419;51.276;6.472;2023-12-29T08:09:17;9.70;99.90
4811;DHT22;2419;51.276;6.472;2023-12-29T08:11:46;9.70;99.90
4811;DHT22;2419;51.276;6.472;2023-12-29T08:14:15;9.70;99.90
4811;DHT22;2419;51.276;6.472;2023-12-29T08:16:43;9.70;99.90
4811;DHT22;2419;51.276;6.472;2023-12-29T08:19:11;9.70;99.90
4811;DHT22;2419;51.276;6.472;2023-12-29T08:21:39;9.70;99.90
4811;DHT22;2419;51.276;6.472;2023-12-29T08:24:07;9.70;99.90
4811;DHT22;2419;51.276;6.472;2023-12-29T08:26:43;9.70;99.90
4811;DHT22;2419;51.276;6.472;2023-12-29T08:29:13;9.70;99.90
4811;DHT22;2419;51.276;6.472;2023-12-29T08:31:41;9.70;99.90
4811;DHT22;2419;51.276;6.472;2023-12-29T08:34:10;9.60;99.90
4811;DHT22;2419;51.276;6.472;2023-12-29T08:36:39;9.60;99.90
4811;DHT22;2419;51.276;6.472;2023-12-29T08:39:07;9.70;99.90
4811;DHT22;2419;51.276;6.472;2023-12-29T08:41:36;9.70;99.90
4811;DHT22;2419;51.276;6.472;2023-12-29T08:44:04;9.70;99.90
4811;DHT22;2419;51.276;6.472;2023-12-29T08:46:33;9.80;99.90
4811;DHT22;2419;51.276;6.472;2023-12-29T08:49:01;9.80;99.90
4811;DHT22;2419;51.276;6.472;2023-12-29T08:51:29;9.80;99.90
4811;DHT22;2419;51.276;6.472;2023-12-29T08:53:57;9.80;99.90
4811;DHT22;2419;51.276;6.472;2023-12-29T08:56:26;9.80;99.90
4811;DHT22;2419;51.276;6.472;2023-12-29T08:58:55;9.80;99.90
4811;DHT22;2419;51.276;6.472;2023-12-29T09:01:23;9.80;99.90
4811;DHT22;2419;51.276;6.472;2023-12-29T09:03:52;9.80;99.90
4811;DHT22;2419;51.276;6.472;2023-12-29T09:06:20;9.80;99.90
4811;DHT22;2419;51.276;6.472;2023-12-29T09:08:49;9.90;99.90
4811;DHT22;2419;51.276;6.472;2023-12-29T09:11:17;9.90;99.90
4811;DHT22;2419;51.276;6.472;2023-12-29T09:13:45;9.90;99.90
4811;DHT22;2419;51.276;6.472;2023-12-29T09:16:13;9.90;99.90
4811;DHT22;2419;51.276;6.472;2023-12-29T09:18:41;9.90;99.90
4811;DHT22;2419;51.276;6.472;2023-12-29T09:21:11;9.90;99.90
4811;DHT22;2419;51.276;6.472;2023-12-29T09:23:39;10.00;99.90
4811;DHT22;2419;51.276;6.472;2023-12-29T09:26:08;10.00;99.90
4811;DHT22;2419;51.276;6.472;2023-12-29T09:28:36;10.00;99.90
4811;DHT22;2419;51.276;6.472;2023-12-29T09:31:04;10.00;99.90
4811;DHT22;2419;51.276;6.472;2023-12-29T09:33:32;9.90;99.90
4811;DHT22;2419;51.276;6.472;2023-12-29T09:36:00;9.90;99.90
4811;DHT22;2419;51.276;6.472;2023-12-29T09:38:30;9.90;99.90
4811;DHT22;2419;51.276;6.472;2023-12-29T09:41:05;9.80;99.90
4811;DHT22;2419;51.276;6.472;2023-12-29T09:43:36;9.70;99.90
4811;DHT22;2419;51.276;6.472;2023-12-29T09:46:04;9.60;99.90
4811;DHT22;2419;51.276;6.472;2023-12-29T09:48:34;9.60;99.90
4811;DHT22;2419;51.276;6.472;2023-12-29T09:51:05;9.50;99.90
4811;DHT22;2419;51.276;6.472;2023-12-29T09:53:36;9.50;99.90
4811;DHT22;2419;51.276;6.472;2023-12-29T09:56:07;9.40;99.90
4811;DHT22;2419;51.276;6.472;2023-12-29T09:58:35;9.40;99.90
4811;DHT22;2419;51.276;6.472;2023-12-29T10:01:05;9.50;99.90
4811;DHT22;2419;51.276;6.472;2023-12-29T10:03:34;9.50;99.90
4811;DHT22;2419;51.276;6.472;2023-12-29T10:06:06;9.50;99.90
4811;DHT22;2419;51.276;6.472;2023-12-29T10:08:37;9.50;99.90
4811;DHT22;2419;51.276;6.472;2023-12-29T10:11:06;9.60;99.90
4811;DHT22;2419;51.276;6.472;2023-12-29T10:13:36;9.60;99.90
4811;DHT22;2419;51.276;6.472;2023-12-29T10:16:10;9.60;99.90
4811;DHT22;2419;51.276;6.472;2023-12-29T10:18:44;9.70;99.90
4811;DHT22;2419;51.276;6.472;2023-12-29T10:21:20;9.70;99.90
4811;DHT22;2419;51.276;6.472;2023-12-29T10:24:01;9.80;99.90
4811;DHT22;2419;51.276;6.472;2023-12-29T10:26:33;9.80;99.90
4811;DHT22;2419;51.276;6.472;2023-12-29T10:29:02;9.80;99.90
4811;DHT22;2419;51.276;6.472;2023-12-29T10:31:30;9.90;99.90
4811;DHT22;2419;51.276;6.472;2023-12-29T10:34:16;10.00;99.90
4811;DHT22;2419;51.276;6.472;2023-12-29T10:36:48;10.10;99.90
4811;DHT22;2419;51.276;6.472;2023-12-29T10:39:18;10.20;99.90
4811;DHT22;2419;51.276;6.472;2023-12-29T10:41:46;10.20;99.90
4811;DHT22;2419;51.276;6.472;2023-12-29T10:44:14;10.20;99.90
4811;DHT22;2419;51.276;6.472;2023-12-29T10:46:42;10.30;99.90
4811;DHT22;2419;51.276;6.472;2023-12-29T10:49:12;10.40;99.90
4811;DHT22;2419;51.276;6.472;2023-12-29T10:51:41;10.50;99.90
4811;DHT22;2419;51.276;6.472;2023-12-29T10:54:20;10.60;99.90
4811;DHT22;2419;51.276;6.472;2023-12-29T10:57:00;10.60;99.90
4811;DHT22;2419;51.276;6.472;2023-12-29T10:59:29;10.70;99.90
4811;DHT22;2419;51.276;6.472;2023-12-29T11:02:01;10.60;99.90
4811;DHT22;2419;51.276;6.472;2023-12-29T11:04:33;10.70;99.90
4811;DHT22;2419;51.276;6.472;2023-12-29T11:07:01;10.60;99.90
4811;DHT22;2419;51.276;6.472;2023-12-29T11:09:32;10.60;99.90
4811;DHT22;2419;51.276;6.472;2023-12-29T11:12:02;10.70;99.90
4811;DHT22;2419;51.276;6.472;2023-12-29T11:14:31;10.60;99.90
4811;DHT22;2419;51.276;6.472;2023-12-29T11:17:00;10.60;99.90
4811;DHT22;2419;51.276;6.472;2023-12-29T11:19:30;10.60;99.90
4811;DHT22;2419;51.276;6.472;2023-12-29T11:22:00;10.60;99.90
4811;DHT22;2419;51.276;6.472;2023-12-29T11:24:30;10.60;99.90
4811;DHT22;2419;51.276;6.472;2023-12-29T11:27:07;10.60;99.90
4811;DHT22;2419;51.276;6.472;2023-12-29T11:29:35;10.60;99.90
4811;DHT22;2419;51.276;6.472;2023-12-29T11:32:06;10.60;99.90
4811;DHT22;2419;51.276;6.472;2023-12-29T11:34:42;10.60;99.90
4811;DHT22;2419;51.276;6.472;2023-12-29T11:37:29;10.60;99.90
4811;DHT22;2419;51.276;6.472;2023-12-29T11:40:14;10.50;99.90
4811;DHT22;2419;51.276;6.472;2023-12-29T11:42:48;10.50;99.90
4811;DHT22;2419;51.276;6.472;2023-12-29T11:45:24;10.50;99.90
4811;DHT22;2419;51.276;6.472;2023-12-29T11:47:53;10.40;99.90
4811;DHT22;2419;51.276;6.472;2023-12-29T11:50:28;10.40;99.90
4811;DHT22;2419;51.276;6.472;2023-12-29T11:52:58;10.40;99.90
4811;DHT22;2419;51.276;6.472;2023-12-29T11:55:30;10.40;99.90
4811;DHT22;2419;51.276;6.472;2023-12-29T11:57:58;10.40;99.90
4811;DHT22;2419;51.276;6.472;2023-12-29T12:00:44;10.40;99.90
4811;DHT22;2419;51.276;6.472;2023-12-29T12:03:17;10.30;99.90
4811;DHT22;2419;51.276;6.472;2023-12-29T12:05:47;10.20;99.90
4811;DHT22;2419;51.276;6.472;2023-12-29T12:08:30;9.90;99.90
4811;DHT22;2419;51.276;6.472;2023-12-29T12:14:06;9.80;99.90
4811;DHT22;2419;51.276;6.472;2023-12-29T12:16:50;9.90;99.90
4811;DHT22;2419;51.276;6.472;2023-12-29T12:19:20;9.80;99.90
4811;DHT22;2419;51.276;6.472;2023-12-29T12:21:53;9.80;99.90
4811;DHT22;2419;51.276;6.472;2023-12-29T12:24:22;9.70;99.90
4811;DHT22;2419;51.276;6.472;2023-12-29T12:26:51;9.90;99.90
4811;DHT22;2419;51.276;6.472;2023-12-29T12:29:19;10.00;99.90
4811;DHT22;2419;51.276;6.472;2023-12-29T12:31:54;10.10;99.90
4811;DHT22;2419;51.276;6.472;2023-12-29T12:34:22;10.20;99.90
4811;DHT22;2419;51.276;6.472;2023-12-29T12:36:52;10.40;99.90
4811;DHT22;2419;51.276;6.472;2023-12-29T12:39:23;10.40;99.90
4811;DHT22;2419;51.276;6.472;2023-12-29T12:41:53;10.40;99.90
4811;DHT22;2419;51.276;6.472;2023-12-29T12:44:21;10.50;99.90
4811;DHT22;2419;51.276;6.472;2023-12-29T12:46:57;10.40;99.90
4811;DHT22;2419;51.276;6.472;2023-12-29T12:49:29;10.30;99.90
4811;DHT22;2419;51.276;6.472;2023-12-29T12:51:57;10.30;99.90
4811;DHT22;2419;51.276;6.472;2023-12-29T12:54:26;10.20;99.90
4811;DHT22;2419;51.276;6.472;2023-12-29T12:56:56;10.10;99.90
4811;DHT22;2419;51.276;6.472;2023-12-29T12:59:24;10.10;99.90
4811;DHT22;2419;51.276;6.472;2023-12-29T13:01:52;10.10;99.90
4811;DHT22;2419;51.276;6.472;2023-12-29T13:04:21;10.10;99.90
4811;DHT22;2419;51.276;6.472;2023-12-29T13:06:49;10.10;99.90
4811;DHT22;2419;51.276;6.472;2023-12-29T13:09:19;10.20;99.90
4811;DHT22;2419;51.276;6.472;2023-12-29T13:11:47;10.30;99.90
4811;DHT22;2419;51.276;6.472;2023-12-29T13:14:23;10.30;99.90
4811;DHT22;2419;51.276;6.472;2023-12-29T13:16:52;10.30;99.90
4811;DHT22;2419;51.276;6.472;2023-12-29T13:19:21;10.30;99.90
4811;DHT22;2419;51.276;6.472;2023-12-29T13:21:53;10.40;99.90
4811;DHT22;2419;51.276;6.472;2023-12-29T13:24:24;10.40;99.90
4811;DHT22;2419;51.276;6.472;2023-12-29T13:26:55;10.50;99.90
4811;DHT22;2419;51.276;6.472;2023-12-29T13:29:27;10.50;99.90
4811;DHT22;2419;51.276;6.472;2023-12-29T13:32:00;10.50;99.90
4811;DHT22;2419;51.276;6.472;2023-12-29T13:34:33;10.50;99.90
4811;DHT22;2419;51.276;6.472;2023-12-29T13:37:08;10.50;99.90
4811;DHT22;2419;51.276;6.472;2023-12-29T13:39:41;10.50;99.90
4811;DHT22;2419;51.276;6.472;2023-12-29T13:42:12;10.50;99.90
4811;DHT22;2419;51.276;6.472;2023-12-29T13:44:44;10.50;99.90
4811;DHT22;2419;51.276;6.472;2023-12-29T13:47:17;10.50;99.90
4811;DHT22;2419;51.276;6.472;2023-12-29T13:49:48;10.50;99.90
4811;DHT22;2419;51.276;6.472;2023-12-29T13:52:17;10.60;99.90
4811;DHT22;2419;51.276;6.472;2023-12-29T13:54:47;10.50;99.90
4811;DHT22;2419;51.276;6.472;2023-12-29T13:57:16;10.50;99.90
4811;DHT22;2419;51.276;6.472;2023-12-29T13:59:47;10.50;99.90
4811;DHT22;2419;51.276;6.472;2023-12-29T14:02:23;10.50;99.90
4811;DHT22;2419;51.276;6.472;2023-12-29T14:05:11;10.40;99.90
4811;DHT22;2419;51.276;6.472;2023-12-29T14:07:44;10.40;99.90
4811;DHT22;2419;51.276;6.472;2023-12-29T14:10:13;10.40;99.90
4811;DHT22;2419;51.276;6.472;2023-12-29T14:12:42;10.40;99.90
4811;DHT22;2419;51.276;6.472;2023-12-29T14:15:12;10.40;99.90
4811;DHT22;2419;51.276;6.472;2023-12-29T14:17:40;10.30;99.90
4811;DHT22;2419;51.276;6.472;2023-12-29T14:20:08;10.30;99.90
4811;DHT22;2419;51.276;6.472;2023-12-29T14:22:37;10.20;99.90
4811;DHT22;2419;51.276;6.472;2023-12-29T14:25:06;10.30;99.90
4811;DHT22;2419;51.276;6.472;2023-12-29T14:27:35;10.20;99.90
4811;DHT22;2419;51.276;6.472;2023-12-29T14:30:19;10.20;99.90
4811;DHT22;2419;51.276;6.472;2023-12-29T14:32:47;10.00;99.90
4811;DHT22;2419;51.276;6.472;2023-12-29T14:35:15;10.00;99.90
4811;DHT22;2419;51.276;6.472;2023-12-29T14:37:44;9.90;99.90
4811;DHT22;2419;51.276;6.472;2023-12-29T14:40:12;9.90;99.90
4811;DHT22;2419;51.276;6.472;2023-12-29T14:42:40;9.80;99.90
4811;DHT22;2419;51.276;6.472;2023-12-29T14:45:09;9.90;99.90
4811;DHT22;2419;51.276;6.472;2023-12-29T14:47:39;9.90;99.90
4811;DHT22;2419;51.276;6.472;2023-12-29T14:50:07;9.80;99.90
4811;DHT22;2419;51.276;6.472;2023-12-29T14:52:36;9.80;99.90
4811;DHT22;2419;51.276;6.472;2023-12-29T14:55:04;9.80;99.90
4811;DHT22;2419;51.276;6.472;2023-12-29T14:57:33;9.80;99.90
4811;DHT22;2419;51.276;6.472;2023-12-29T15:00:01;9.80;99.90
4811;DHT22;2419;51.276;6.472;2023-12-29T15:02:31;9.70;99.90
4811;DHT22;2419;51.276;6.472;2023-12-29T15:05:00;9.70;99.90
4811;DHT22;2419;51.276;6.472;2023-12-29T15:07:28;9.80;99.90
4811;DHT22;2419;51.276;6.472;2023-12-29T15:09:57;9.70;99.90
4811;DHT22;2419;51.276;6.472;2023-12-29T15:12:25;9.70;99.90
4811;DHT22;2419;51.276;6.472;2023-12-29T15:14:53;9.70;99.90
4811;DHT22;2419;51.276;6.472;2023-12-29T15:17:22;9.70;99.90
4811;DHT22;2419;51.276;6.472;2023-12-29T15:19:50;9.80;99.90
4811;DHT22;2419;51.276;6.472;2023-12-29T15:22:19;9.80;99.90
4811;DHT22;2419;51.276;6.472;2023-12-29T15:24:52;9.80;99.90
4811;DHT22;2419;51.276;6.472;2023-12-29T15:27:20;9.80;99.90
4811;DHT22;2419;51.276;6.472;2023-12-29T15:29:49;9.90;99.90
4811;DHT22;2419;51.276;6.472;2023-12-29T15:32:18;9.90;99.90
4811;DHT22;2419;51.276;6.472;2023-12-29T15:34:46;9.90;99.90
4811;DHT22;2419;51.276;6.472;2023-12-29T15:37:14;9.90;99.90
4811;DHT22;2419;51.276;6.472;2023-12-29T15:39:44;10.00;99.90
4811;DHT22;2419;51.276;6.472;2023-12-29T15:42:12;9.90;99.90
4811;DHT22;2419;51.276;6.472;2023-12-29T15:44:48;9.80;99.90
4811;DHT22;2419;51.276;6.472;2023-12-29T15:47:16;9.80;99.90
4811;DHT22;2419;51.276;6.472;2023-12-29T15:49:44;9.80;99.90
4811;DHT22;2419;51.276;6.472;2023-12-29T15:52:12;9.80;99.90
4811;DHT22;2419;51.276;6.472;2023-12-29T15:54:41;9.80;99.90
4811;DHT22;2419;51.276;6.472;2023-12-29T15:57:10;9.80;99.90
4811;DHT22;2419;51.276;6.472;2023-12-29T15:59:38;9.80;99.90
4811;DHT22;2419;51.276;6.472;2023-12-29T16:02:06;9.80;99.90
4811;DHT22;2419;51.276;6.472;2023-12-29T16:04:36;9.80;99.90
4811;DHT22;2419;51.276;6.472;2023-12-29T16:07:10;9.90;99.90
4811;DHT22;2419;51.276;6.472;2023-12-29T16:09:38;9.90;99.90
4811;DHT22;2419;51.276;6.472;2023-12-29T16:12:09;9.90;99.90
4811;DHT22;2419;51.276;6.472;2023-12-29T16:14:37;10.00;99.90
4811;DHT22;2419;51.276;6.472;2023-12-29T16:17:07;9.90;99.90
4811;DHT22;2419;51.276;6.472;2023-12-29T16:19:35;10.00;99.90
4811;DHT22;2419;51.276;6.472;2023-12-29T16:22:03;10.00;99.90
4811;DHT22;2419;51.276;6.472;2023-12-29T16:24:31;10.00;99.90